Portada
METAR-TAF:

METAR-TAF

Aeroports :

Shaw Air Force Base

Sumter, Carolina del Sud, Estats Units d'Amèrica

latitud: 33-58N, longitud: 080-29W, altitud: 74 m

Observació

L'informe es va fer fa 57 minuts, a les 22:56 UTC
Vent 9 kt del Sud
Temperatura 35°C
Humitat 39%
Pressió 1018 hPa
Visibilitat: 16.1 km
Cel clar

METAR: KSSC 252256Z AUTO 18009KT 10SM CLR 35/19 A3005 RMK AO2 SLP175 T03470187 $

Hora: 19:53 (23:53 UTC)

Pronòstic

L'informe es va fer fa 53 minuts, a les 23:00 UTC
Pronòstic vàlid del 24 a les 23 UTC al 26 a les 05 UTC
Vent 6 kt amb direcció variable
Visibilitat: 2807 m
Escasses núvols a una alçada de 7500 ft

TAF: KSSC 242300Z 2423/2605 VRB06KT 9999 FEW075 QNH3004INS TX35/2519Z TN21/2510Z LAST NO AMDS AFT 2423 NEXT 2807

Observacions i pronòstics meteorològics de més de 4000 aeroports (METAR i TAF).

Les estacions disponibles són els punts grocs i vermells al mapa.

Posi el ratolí al punt desitjat per veure el nom de l'estació.

Feu clic per veure les observacions i els pronòstics meteorològics.

Per canviar el mapa: feu clic els botons verds amb una creu de color negre per apropar; al botó verd amb un guió per allunyar la imatge; o en les fletxes verdes per a mapes adjacents.


METAR-TAF: